34°F Temp
30°F Dewpoint
87% Humidity
Temperature
12 MPH
19 KM/H
10 KTS
70°
East North
East

Wind Speed
Light Rain
Showers
Pressure 1009.52 (hPa) - 29.81 (in)
Visibility 2.5 (mi) - 4.0 (km)

Current Conditions
KTZR
Location Bolton Field 6km (3.2mi)
Metar :KTZR 191645Z 07010KT 2 1/2SM -RA OVC008 01/M01 A2981
Sat 19th January 11:45 am

Airport
  Metar Aviation API Data Provided by https://www.checkwx.com/ CSS/SVG/PHP scripts by weather34.com © 2015-2019